Entiat, WA

11:39 PM PDT on October 24, 2014 (GMT -0700)
RAWS ENTIAT WA US | Change Station
CLOSE
Current Station
Personal Weather Station
Location: Entiat, WA
Elevation: 2825 ft
Nearby Weather Stations

Elev 2825 ft 47.73 °N, 120.24 °W | Updated 57 minutes ago

Rain
Rain
42 °F
Feels Like 38 °F
N
6
Wind Variable Wind from West
Gusts 8.0 mph

Today
High -- | Low -- °F
--% Chance of Precip.
Yesterday
High -- | Low -- °F
Precip. -- in
7:33 AM 5:56 PM
New Moon, 2% visible
Pressure 29.95 in
Visibility 8.0 miles
Clouds Scattered Clouds 400 ft
Overcast 2400 ft
Windchill 38 °F
Dew Point 41 °F
Humidity 96%
Rainfall 0.21 in
Snow Depth Not available.
UV 0 out of 12
Pollen 1.40 out of 12
Air Quality Not available.
Flu Activity Sporadic
SPECI KEAT 250630Z AUTO 27005KT 8SM -RA SCT004 OVC024 09/07 A2995 RMK AO2 P0001 T00890072

More Conditions Fewer Conditions

Pressure 29.95 in
Visibility 8.0 miles
Clouds Scattered Clouds 400 ft
Overcast 2400 ft
Windchill 38 °F
Dew Point 41 °F
Humidity 96%
Rainfall 0.21 in
Snow Depth Not available.
UV 0 out of 12
Pollen 1.40 out of 12
Air Quality Not available.
Flu Activity Sporadic
SPECI KEAT 250630Z AUTO 27005KT 8SM -RA SCT004 OVC024 09/07 A2995 RMK AO2 P0001 T00890072

More Conditions Fewer Conditions

10-Day Weather Forecast

Almanac

Astronomy

Oct. 24, 2014 Rise Set
Actual Time 7:33 AM PDT 5:56 PM PDT
Civil Twilight 7:01 AM PDT 6:28 PM PDT
Nautical Twilight 6:25 AM PDT 7:04 PM PDT
Astronomical Twilight 5:50 AM PDT 7:39 PM PDT
Moon 8:20 AM PDT (10/24) 6:36 PM PDT (10/24)
Length of Visible Light 11h 26m
Length of Day
10h 22m
Tomorrow will be 3m 14s shorter.
New Moon, 2% of the Moon is Illuminated
Oct 25
New Moon
Oct 30
First Quarter
Nov 6
Full
Nov 14
Last Quarter
Nov 22
New

Community

WunderPhotos

Upload Photos

1,764,785 photos uploaded!

Nearby

Snow Depth

Station Depth Elevation
Pope Ridge 0 in 3540 ft
Blewett Pass 0 in 4270 ft
Grouse Camp 0 in 5380 ft
Trough 1 in 5300 ft
Stevens Pass 0 in 4070 ft

Earthquake Activity

City Distance Mag. Time & Date
No recent earthquake activity has been reported nearby.
Minimum magnitude displayed is 2.5.

Coastal Water Temperatures

Place Temperature
No Stations Reporting

Nearby Weather Stations